Time,TemperatureF,DewpointF,PressureIn,WindDirection,WindDirectionDegrees,WindSpeedMPH,WindSpeedGustMPH,Humidity,HourlyPrecipIn,Conditions,Clouds,dailyrainin,SoftwareType,DateUTC
2013-05-31 00:13:00,63.0,62.7,29.98,ENE,67,0.0,-999.0,99,-99.99,,,0.00,Acu-Link.com,2013-05-31 04:13:00,
2013-05-31 00:28:00,62.8,62.5,29.98,ENE,67,0.0,-999.0,99,-99.99,,,0.00,Acu-Link.com,2013-05-31 04:28:00,
2013-05-31 00:43:00,62.4,62.1,29.98,East,90,0.0,-999.0,99,-99.99,,,0.00,Acu-Link.com,2013-05-31 04:43:00,
2013-05-31 00:58:00,62.4,62.1,29.98,NE,45,0.0,-999.0,99,-99.99,,,0.00,Acu-Link.com,2013-05-31 04:58:00,
2013-05-31 01:13:00,62.2,61.9,29.98,SSE,157,0.0,-999.0,99,-99.99,,,0.00,Acu-Link.com,2013-05-31 05:13:00,
2013-05-31 01:28:00,62.1,61.8,29.98,South,180,0.0,-999.0,99,-99.99,,,0.00,Acu-Link.com,2013-05-31 05:28:00,
2013-05-31 01:43:00,61.7,61.4,29.99,SSE,157,0.0,-999.0,99,-99.99,,,0.00,Acu-Link.com,2013-05-31 05:43:00,
2013-05-31 01:58:00,61.5,61.2,29.98,SW,225,0.0,-999.0,99,-99.99,,,0.00,Acu-Link.com,2013-05-31 05:58:00,
2013-05-31 02:13:00,61.3,61.0,29.98,South,180,0.0,-999.0,99,-99.99,,,0.00,Acu-Link.com,2013-05-31 06:13:00,
2013-05-31 02:28:00,61.3,61.0,29.97,East,90,0.0,-999.0,99,-99.99,,,0.00,Acu-Link.com,2013-05-31 06:28:00,
2013-05-31 02:44:00,61.0,60.7,29.97,North,0,0.0,-999.0,99,-99.99,,,0.00,Acu-Link.com,2013-05-31 06:44:00,
2013-05-31 02:59:00,60.8,60.5,29.97,East,90,0.0,-999.0,99,-99.99,,,0.00,Acu-Link.com,2013-05-31 06:59:00,
2013-05-31 03:14:00,60.8,60.5,29.95,ESE,112,0.0,-999.0,99,-99.99,,,0.00,Acu-Link.com,2013-05-31 07:14:00,
2013-05-31 03:29:00,60.4,60.1,29.96,NNW,337,0.0,-999.0,99,-99.99,,,0.00,Acu-Link.com,2013-05-31 07:29:00,
2013-05-31 03:44:00,60.3,60.0,29.95,WSW,247,0.0,-999.0,99,-99.99,,,0.00,Acu-Link.com,2013-05-31 07:44:00,
2013-05-31 03:59:00,60.3,60.0,29.94,ESE,112,0.0,-999.0,99,-99.99,,,0.00,Acu-Link.com,2013-05-31 07:59:00,
2013-05-31 04:15:00,60.3,60.0,29.94,SE,135,0.0,-999.0,99,-99.99,,,0.00,Acu-Link.com,2013-05-31 08:15:00,
2013-05-31 04:31:00,60.1,59.8,29.94,East,90,0.0,-999.0,99,-99.99,,,0.00,Acu-Link.com,2013-05-31 08:31:00,
2013-05-31 04:46:00,59.9,59.6,29.94,East,90,0.0,-999.0,99,-99.99,,,0.00,Acu-Link.com,2013-05-31 08:46:00,
2013-05-31 05:01:00,59.9,59.6,29.95,ESE,112,0.0,-999.0,99,-99.99,,,0.00,Acu-Link.com,2013-05-31 09:01:00,
2013-05-31 05:17:00,59.9,59.6,29.96,East,90,0.0,-999.0,99,-99.99,,,0.00,Acu-Link.com,2013-05-31 09:17:00,
2013-05-31 05:32:00,59.9,59.6,29.97,NE,45,0.0,-999.0,99,-99.99,,,0.00,Acu-Link.com,2013-05-31 09:32:00,
2013-05-31 05:47:00,59.7,59.4,29.97,East,90,0.0,-999.0,99,-99.99,,,0.00,Acu-Link.com,2013-05-31 09:47:00,
2013-05-31 06:02:00,59.5,59.2,29.98,ESE,112,0.0,-999.0,99,-99.99,,,0.00,Acu-Link.com,2013-05-31 10:02:00,
2013-05-31 06:17:00,59.5,59.2,29.99,NE,45,0.0,-999.0,99,-99.99,,,0.00,Acu-Link.com,2013-05-31 10:17:00,
2013-05-31 06:32:00,59.5,59.2,29.99,ESE,112,0.0,-999.0,99,-99.99,,,0.00,Acu-Link.com,2013-05-31 10:32:00,
2013-05-31 06:47:00,59.7,59.4,29.99,SSE,157,0.0,-999.0,99,-99.99,,,0.00,Acu-Link.com,2013-05-31 10:47:00,
2013-05-31 07:03:00,60.1,59.8,29.99,SSE,157,0.0,-999.0,99,-99.99,,,0.00,Acu-Link.com,2013-05-31 11:03:00,
2013-05-31 07:18:00,60.6,60.3,29.99,South,180,0.0,-999.0,99,-99.99,,,0.00,Acu-Link.com,2013-05-31 11:18:00,
2013-05-31 07:33:00,61.9,61.6,30.00,ESE,112,0.0,-999.0,99,-99.99,,,0.00,Acu-Link.com,2013-05-31 11:33:00,
2013-05-31 07:48:00,63.7,63.4,30.00,East,90,0.0,-999.0,99,-99.99,,,0.00,Acu-Link.com,2013-05-31 11:48:00,
2013-05-31 08:03:00,67.6,67.3,30.00,NNW,337,0.0,-999.0,99,-99.99,,,0.00,Acu-Link.com,2013-05-31 12:03:00,
2013-05-31 08:18:00,74.5,70.7,30.01,SSE,157,2.7,-999.0,88,-99.99,,,0.00,Acu-Link.com,2013-05-31 12:18:00,
2013-05-31 08:33:00,79.3,69.1,30.01,NE,45,1.7,-999.0,71,-99.99,,,0.00,Acu-Link.com,2013-05-31 12:33:00,
2013-05-31 08:48:00,80.6,68.2,30.02,SE,135,0.0,-999.0,66,-99.99,,,0.00,Acu-Link.com,2013-05-31 12:48:00,
2013-05-31 09:03:00,81.7,67.4,30.01,SSE,157,3.7,-999.0,62,-99.99,,,0.00,Acu-Link.com,2013-05-31 13:03:00,
2013-05-31 09:19:00,83.1,67.3,30.01,NE,45,1.7,-999.0,59,-99.99,,,0.00,Acu-Link.com,2013-05-31 13:19:00,
2013-05-31 09:34:00,86.4,67.8,30.01,SSW,202,2.2,-999.0,54,-99.99,,,0.00,Acu-Link.com,2013-05-31 13:34:00,
2013-05-31 09:49:00,84.2,66.3,30.00,West,270,6.8,-999.0,55,-99.99,,,0.00,Acu-Link.com,2013-05-31 13:49:00,
2013-05-31 10:04:00,82.2,65.4,30.01,SSW,202,2.2,-999.0,57,-99.99,,,0.00,Acu-Link.com,2013-05-31 14:04:00,
2013-05-31 10:19:00,79.9,65.7,30.01,ENE,67,1.7,-999.0,62,-99.99,,,0.00,Acu-Link.com,2013-05-31 14:19:00,
2013-05-31 10:34:00,78.8,65.6,30.01,SSW,202,3.7,-999.0,64,-99.99,,,0.00,Acu-Link.com,2013-05-31 14:34:00,
2013-05-31 10:50:00,80.8,66.1,30.01,ESE,112,3.2,-999.0,61,-99.99,,,0.00,Acu-Link.com,2013-05-31 14:50:00,
2013-05-31 11:05:00,80.1,67.3,30.02,SE,135,4.2,-999.0,65,-99.99,,,0.00,Acu-Link.com,2013-05-31 15:05:00,
2013-05-31 11:20:00,81.3,67.9,30.01,SSE,157,3.7,-999.0,64,-99.99,,,0.00,Acu-Link.com,2013-05-31 15:20:00,
2013-05-31 11:35:00,81.3,67.5,30.00,NE,45,6.8,-999.0,63,-99.99,,,0.00,Acu-Link.com,2013-05-31 15:35:00,
2013-05-31 11:50:00,82.4,66.1,30.00,SW,225,5.8,-999.0,58,-99.99,,,0.00,Acu-Link.com,2013-05-31 15:50:00,
2013-05-31 12:05:00,82.0,67.7,29.99,NE,45,2.2,-999.0,62,-99.99,,,0.00,Acu-Link.com,2013-05-31 16:05:00,
2013-05-31 12:20:00,83.7,67.3,29.99,South,180,4.2,-999.0,58,-99.99,,,0.00,Acu-Link.com,2013-05-31 16:20:00,
2013-05-31 12:35:00,81.9,66.1,29.99,SW,225,4.2,-999.0,59,-99.99,,,0.00,Acu-Link.com,2013-05-31 16:35:00,
2013-05-31 12:50:00,83.8,67.9,29.98,ENE,67,1.1,-999.0,59,-99.99,,,0.00,Acu-Link.com,2013-05-31 16:50:00,
2013-05-31 13:06:00,84.4,67.5,29.97,North,0,2.7,-999.0,57,-99.99,,,0.00,Acu-Link.com,2013-05-31 17:06:00,
2013-05-31 13:21:00,83.5,66.1,29.97,SSE,157,1.7,-999.0,56,-99.99,,,0.00,Acu-Link.com,2013-05-31 17:21:00,
2013-05-31 13:36:00,82.4,65.6,29.96,South,180,2.2,-999.0,57,-99.99,,,0.00,Acu-Link.com,2013-05-31 17:36:00,
2013-05-31 13:51:00,82.8,65.0,29.96,West,270,6.3,-999.0,55,-99.99,,,0.00,Acu-Link.com,2013-05-31 17:51:00,
2013-05-31 14:06:00,82.4,65.1,29.95,South,180,2.2,-999.0,56,-99.99,,,0.00,Acu-Link.com,2013-05-31 18:06:00,
2013-05-31 14:21:00,84.9,65.8,29.95,South,180,3.2,-999.0,53,-99.99,,,0.00,Acu-Link.com,2013-05-31 18:21:00,
2013-05-31 14:36:00,84.0,64.5,29.94,South,180,4.2,-999.0,52,-99.99,,,0.00,Acu-Link.com,2013-05-31 18:36:00,
2013-05-31 14:51:00,85.6,66.5,29.94,East,90,2.2,-999.0,53,-99.99,,,0.00,Acu-Link.com,2013-05-31 18:51:00,
2013-05-31 15:06:00,87.1,67.3,29.94,West,270,5.8,-999.0,52,-99.99,,,0.00,Acu-Link.com,2013-05-31 19:06:00,
2013-05-31 15:22:00,84.7,65.1,29.93,NNW,337,1.7,-999.0,52,-99.99,,,0.00,Acu-Link.com,2013-05-31 19:22:00,
2013-05-31 15:37:00,84.7,65.1,29.93,ESE,112,3.7,-999.0,52,-99.99,,,0.00,Acu-Link.com,2013-05-31 19:37:00,
2013-05-31 15:52:00,84.6,66.1,29.93,SE,135,6.3,-999.0,54,-99.99,,,0.00,Acu-Link.com,2013-05-31 19:52:00,
2013-05-31 16:07:00,85.6,67.5,29.92,West,270,5.3,-999.0,55,-99.99,,,0.00,Acu-Link.com,2013-05-31 20:07:00,
2013-05-31 16:22:00,84.9,65.3,29.92,SSE,157,2.7,-999.0,52,-99.99,,,0.00,Acu-Link.com,2013-05-31 20:22:00,
2013-05-31 16:37:00,86.0,66.8,29.92,NNE,22,4.2,-999.0,53,-99.99,,,0.00,Acu-Link.com,2013-05-31 20:37:00,
2013-05-31 16:52:00,84.9,64.7,29.91,NE,45,3.2,-999.0,51,-99.99,,,0.00,Acu-Link.com,2013-05-31 20:52:00,
2013-05-31 17:07:00,85.1,64.9,29.91,SE,135,3.2,-999.0,51,-99.99,,,0.00,Acu-Link.com,2013-05-31 21:07:00,
2013-05-31 17:22:00,85.3,65.1,29.91,SW,225,3.2,-999.0,51,-99.99,,,0.00,Acu-Link.com,2013-05-31 21:22:00,
2013-05-31 17:38:00,84.6,66.1,29.91,South,180,2.7,-999.0,54,-99.99,,,0.00,Acu-Link.com,2013-05-31 21:38:00,
2013-05-31 17:53:00,83.1,63.6,29.90,South,180,3.7,-999.0,52,-99.99,,,0.00,Acu-Link.com,2013-05-31 21:53:00,
2013-05-31 18:08:00,82.4,65.1,29.90,ESE,112,2.7,-999.0,56,-99.99,,,0.00,Acu-Link.com,2013-05-31 22:08:00,
2013-05-31 18:23:00,82.4,64.6,29.90,SSW,202,2.2,-999.0,55,-99.99,,,0.00,Acu-Link.com,2013-05-31 22:23:00,
2013-05-31 18:38:00,84.0,66.6,29.90,SW,225,2.2,-999.0,56,-99.99,,,0.00,Acu-Link.com,2013-05-31 22:38:00,
2013-05-31 18:53:00,84.7,66.2,29.90,West,270,0.0,-999.0,54,-99.99,,,0.00,Acu-Link.com,2013-05-31 22:53:00,
2013-05-31 19:08:00,84.6,67.1,29.91,East,90,1.7,-999.0,56,-99.99,,,0.00,Acu-Link.com,2013-05-31 23:08:00,
2013-05-31 19:23:00,82.2,68.3,29.90,SSE,157,0.0,-999.0,63,-99.99,,,0.00,Acu-Link.com,2013-05-31 23:23:00,
2013-05-31 19:39:00,81.0,68.1,29.91,West,270,0.0,-999.0,65,-99.99,,,0.00,Acu-Link.com,2013-05-31 23:39:00,
2013-05-31 19:54:00,80.2,66.4,29.90,NNE,22,1.1,-999.0,63,-99.99,,,0.00,Acu-Link.com,2013-05-31 23:54:00,
2013-05-31 20:09:00,80.1,66.8,29.90,WSW,247,1.1,-999.0,64,-99.99,,,0.00,Acu-Link.com,2013-06-01 00:09:00,
2013-05-31 20:24:00,78.8,65.6,29.90,South,180,2.2,-999.0,64,-99.99,,,0.00,Acu-Link.com,2013-06-01 00:24:00,
2013-05-31 20:39:00,78.1,65.4,29.90,SE,135,0.0,-999.0,65,-99.99,,,0.00,Acu-Link.com,2013-06-01 00:39:00,
2013-05-31 20:54:00,76.8,65.4,29.90,ESE,112,0.0,-999.0,68,-99.99,,,0.00,Acu-Link.com,2013-06-01 00:54:00,
2013-05-31 21:09:00,75.4,65.7,29.89,East,90,0.0,-999.0,72,-99.99,,,0.00,Acu-Link.com,2013-06-01 01:09:00,
2013-05-31 21:24:00,73.9,64.7,29.89,ESE,112,0.0,-999.0,73,-99.99,,,0.00,Acu-Link.com,2013-06-01 01:24:00,
2013-05-31 21:40:00,73.4,65.0,29.89,ESE,112,0.0,-999.0,75,-99.99,,,0.00,Acu-Link.com,2013-06-01 01:40:00,
2013-05-31 21:55:00,72.7,64.7,29.89,SSW,202,0.0,-999.0,76,-99.99,,,0.00,Acu-Link.com,2013-06-01 01:55:00,
2013-05-31 22:10:00,72.1,64.5,29.90,SW,225,0.0,-999.0,77,-99.99,,,0.00,Acu-Link.com,2013-06-01 02:10:00,
2013-05-31 22:25:00,71.6,64.4,29.90,South,180,0.0,-999.0,78,-99.99,,,0.00,Acu-Link.com,2013-06-01 02:25:00,
2013-05-31 22:40:00,71.1,63.9,29.90,South,180,0.0,-999.0,78,-99.99,,,0.00,Acu-Link.com,2013-06-01 02:40:00,
2013-05-31 22:55:00,70.7,64.2,29.90,WNW,292,0.0,-999.0,80,-99.99,,,0.00,Acu-Link.com,2013-06-01 02:55:00,
2013-05-31 23:10:00,70.5,64.0,29.89,WNW,292,0.0,-999.0,80,-99.99,,,0.00,Acu-Link.com,2013-06-01 03:10:00,
2013-05-31 23:25:00,70.2,63.7,29.89,ESE,112,0.0,-999.0,80,-99.99,,,0.00,Acu-Link.com,2013-06-01 03:25:00,
2013-05-31 23:40:00,69.4,63.7,29.89,WNW,292,0.0,-999.0,82,-99.99,,,0.00,Acu-Link.com,2013-06-01 03:40:00,
2013-05-31 23:56:00,68.7,64.0,29.89,East,90,0.0,-999.0,85,-99.99,,,0.00,Acu-Link.com,2013-06-01 03:56:00,